Time;durP1;ratioP1;P1;durP2;ratioP2;P2;SDS_P1;SDS_P2;PMS_P1;PMS_P2;Temp;Humidity;BMP_temperature;BMP_pressure;BME280_temperature;BME280_humidity;BME280_pressure;Samples;Min_cycle;Max_cycle;Signal;HPM_P1;HPM_P2
2022/06/11 00:01:20;;;;;;;;;;;;;;;24.20;47.92;101083.06;5003424;28;7290;-75
2022/06/11 00:03:51;;;;;;;;;;;;;;;24.11;47.21;101080.41;5000105;28;7209;-75
2022/06/11 00:06:17;;;;;;;;;;;;;;;24.02;47.80;101073.38;5021511;28;6820;-75
2022/06/11 00:08:43;;;;;;;;;;;;;;;23.95;48.06;101082.97;5019544;28;7210;-75
2022/06/11 00:11:10;;;;;;;;;;;;;;;23.89;47.79;101082.06;5003113;28;7119;-75
2022/06/11 00:13:36;;;;;;;;;;;;;;;23.81;47.76;101075.06;5001189;28;7219;-75
2022/06/11 00:16:03;;;;;;;;;;;;;;;23.74;48.37;101077.63;4998973;28;6815;-75
2022/06/11 00:18:31;;;;;;;;;;;;;;;23.67;48.29;101082.88;4983552;28;6815;-75
2022/06/11 00:20:57;;;;;;;;;;;;;;;23.61;48.37;101087.16;4981906;28;6983;-75
2022/06/11 00:23:23;;;;;;;;;;;;;;;23.56;48.43;101084.53;4993946;28;8249;-75
2022/06/11 00:25:48;;;;;;;;;;;;;;;23.52;48.55;101081.06;4980121;28;7995;-75
2022/06/11 00:28:15;;;;;;;;;;;;;;;23.50;48.87;101097.59;5011197;28;6902;-75
2022/06/11 00:30:41;;;;;;;;;;;;;;;23.49;48.97;101088.00;4992759;28;7907;-75
2022/06/11 00:33:07;;;;;;;;;;;;;;;23.47;48.81;101085.38;4997206;28;6983;-75
2022/06/11 00:35:37;;;;;;;;;;;;;;;23.49;49.01;101093.25;4995976;28;6788;-75
2022/06/11 00:38:03;;;;;;;;;;;;;;;23.49;49.95;101098.47;4994544;28;6950;-75
2022/06/11 00:40:34;;;;;;;;;;;;;;;23.49;49.62;101081.00;4996560;28;6812;-75
2022/06/11 00:43:00;;;;;;;;;;;;;;;23.51;49.87;101091.50;5001466;28;7451;-75
2022/06/11 00:45:35;;;;;;;;;;;;;;;23.53;49.93;101093.25;4977078;28;7224;-75
2022/06/11 00:48:40;;;;;;;;;;;;;;;23.55;49.28;101085.41;4994803;28;6835;-75
2022/06/11 00:51:22;;;;;;;;;;;;;;;23.56;49.51;101089.75;4963653;28;7155;-75
2022/06/11 00:54:01;;;;;;;;;;;;;;;23.56;49.32;101092.38;4994898;28;7442;-75
2022/06/11 00:56:43;;;;;;;;;;;;;;;23.55;49.30;101090.63;4991946;28;8641;-75
2022/06/11 00:59:22;;;;;;;;;;;;;;;23.53;49.34;101089.75;4996929;28;6819;-75
2022/06/11 01:01:48;;;;;;;;;;;;;;;23.50;49.83;101094.97;4992524;28;7379;-75
2022/06/11 01:04:38;;;;;;;;;;;;;;;23.45;49.60;101089.72;4997116;28;6899;-75
2022/06/11 01:07:40;;;;;;;;;;;;;;;23.36;49.75;101093.16;4996793;28;7299;-74
2022/06/11 01:10:28;;;;;;;;;;;;;;;23.26;49.48;101083.47;5006000;28;7156;-74
2022/06/11 01:13:32;;;;;;;;;;;;;;;23.14;49.47;101079.91;5002946;28;6807;-75
2022/06/11 01:16:39;;;;;;;;;;;;;;;23.02;50.30;101074.59;4946961;28;7075;-75
2022/06/11 01:19:39;;;;;;;;;;;;;;;22.89;50.13;101084.97;4987010;28;7048;-75
2022/06/11 01:22:43;;;;;;;;;;;;;;;22.77;49.95;101078.78;5004345;28;7143;-75
2022/06/11 01:25:42;;;;;;;;;;;;;;;22.65;50.20;101080.44;5003002;28;6820;-75
2022/06/11 01:28:44;;;;;;;;;;;;;;;22.50;51.13;101081.13;5017696;28;7081;-75
2022/06/11 01:31:53;;;;;;;;;;;;;;;22.36;51.50;101077.50;5005041;28;6811;-75
2022/06/11 01:34:33;;;;;;;;;;;;;;;22.25;51.65;101077.38;4977061;28;7204;-75
2022/06/11 01:37:12;;;;;;;;;;;;;;;22.13;51.82;101079.00;4999412;28;6967;-75
2022/06/11 01:40:26;;;;;;;;;;;;;;;22.02;52.10;101081.50;4997333;28;6947;-75
2022/06/11 01:43:13;;;;;;;;;;;;;;;21.91;52.45;101093.53;4977787;28;6828;-75
2022/06/11 01:45:39;;;;;;;;;;;;;;;21.78;52.71;101082.97;5000198;28;6815;-75
2022/06/11 01:48:14;;;;;;;;;;;;;;;21.71;52.81;101083.72;5000120;28;6974;-75
2022/06/11 01:50:48;;;;;;;;;;;;;;;21.63;52.93;101085.31;4997867;28;6828;-75
2022/06/11 01:53:48;;;;;;;;;;;;;;;21.55;53.33;101084.38;4997583;28;6959;-75
2022/06/11 01:56:16;;;;;;;;;;;;;;;21.46;53.52;101079.88;5014756;28;7311;-75
2022/06/11 01:59:14;;;;;;;;;;;;;;;21.38;53.36;101087.63;5001643;28;7309;-75
2022/06/11 02:01:58;;;;;;;;;;;;;;;21.29;53.97;101084.88;4986015;28;7130;-75
2022/06/11 02:05:00;;;;;;;;;;;;;;;21.23;54.21;101093.47;4991666;28;7946;-75
2022/06/11 02:07:59;;;;;;;;;;;;;;;21.19;53.77;101094.28;4995261;28;6807;-76
2022/06/11 02:10:52;;;;;;;;;;;;;;;21.15;53.89;101089.88;4997360;28;6824;-76
2022/06/11 02:13:25;;;;;;;;;;;;;;;21.11;53.96;101090.69;4981353;28;6895;-76
2022/06/11 02:16:01;;;;;;;;;;;;;;;21.11;54.07;101088.94;4994020;28;6804;-76
2022/06/11 02:18:30;;;;;;;;;;;;;;;21.11;54.18;101085.50;4999901;28;6800;-76
2022/06/11 02:21:13;;;;;;;;;;;;;;;21.11;54.14;101090.69;4995679;28;7040;-76
2022/06/11 02:24:02;;;;;;;;;;;;;;;21.08;53.76;101083.69;4979941;28;7046;-77
2022/06/11 02:26:34;;;;;;;;;;;;;;;21.05;54.22;101086.25;4982001;28;6820;-76
2022/06/11 02:29:03;;;;;;;;;;;;;;;21.03;54.12;101082.75;5000316;28;6819;-76
2022/06/11 02:31:39;;;;;;;;;;;;;;;20.99;54.13;101076.59;4997918;28;6839;-76
2022/06/11 02:34:08;;;;;;;;;;;;;;;20.97;54.18;101077.47;4983852;28;7238;-76
2022/06/11 02:36:59;;;;;;;;;;;;;;;20.92;54.15;101080.84;5000683;28;7191;-76
2022/06/11 02:39:29;;;;;;;;;;;;;;;20.88;54.24;101079.06;4989550;28;7082;-75
2022/06/11 02:41:55;;;;;;;;;;;;;;;20.86;54.54;101074.66;5003060;28;6911;-75
2022/06/11 02:44:21;;;;;;;;;;;;;;;20.87;54.94;101079.03;4997877;28;7207;-75
2022/06/11 02:46:47;;;;;;;;;;;;;;;20.87;54.88;101082.53;4998187;28;6882;-75
2022/06/11 02:49:27;;;;;;;;;;;;;;;20.89;54.90;101091.22;5000340;28;6812;-75
2022/06/11 02:51:58;;;;;;;;;;;;;;;20.89;54.58;101091.22;5018766;28;6819;-74
2022/06/11 02:54:25;;;;;;;;;;;;;;;20.89;54.79;101092.94;5010285;28;6812;-74
2022/06/11 02:56:55;;;;;;;;;;;;;;;20.89;54.98;101099.03;4985070;28;6963;-74
2022/06/11 02:59:23;;;;;;;;;;;;;;;20.86;55.31;101099.00;5003737;28;6978;-75
2022/06/11 03:01:49;;;;;;;;;;;;;;;20.84;55.28;101098.06;4964469;28;7071;-74
2022/06/11 03:04:16;;;;;;;;;;;;;;;20.83;55.72;101104.13;4979700;28;10359;-74
2022/06/11 03:06:42;;;;;;;;;;;;;;;20.83;55.40;101103.28;5002334;28;7054;-74
2022/06/11 03:09:16;;;;;;;;;;;;;;;20.82;55.17;101097.19;4993757;28;6959;-75
2022/06/11 03:11:41;;;;;;;;;;;;;;;20.82;55.26;101102.38;5004486;28;7681;-75
2022/06/11 03:14:07;;;;;;;;;;;;;;;20.82;55.65;101110.19;5001162;28;7660;-75
2022/06/11 03:16:35;;;;;;;;;;;;;;;20.78;55.56;101105.78;4984543;28;7124;-75
2022/06/11 03:19:01;;;;;;;;;;;;;;;20.77;55.45;101111.84;5005483;28;6962;-75
2022/06/11 03:21:27;;;;;;;;;;;;;;;20.75;55.03;101114.41;5005935;28;6815;-75
2022/06/11 03:23:53;;;;;;;;;;;;;;;20.73;55.15;101107.41;4982922;28;6863;-75
2022/06/11 03:26:19;;;;;;;;;;;;;;;20.71;55.63;101106.50;4999791;28;8541;-75
2022/06/11 03:28:44;;;;;;;;;;;;;;;20.70;55.14;101107.38;5003488;28;6894;-74
2022/06/11 03:31:10;;;;;;;;;;;;;;;20.72;55.87;101110.88;4996533;28;6795;-74
2022/06/11 03:33:39;;;;;;;;;;;;;;;20.75;55.58;101108.31;5002471;28;6791;-75
2022/06/11 03:36:09;;;;;;;;;;;;;;;20.79;55.77;101110.13;5003720;28;6807;-75
2022/06/11 03:38:37;;;;;;;;;;;;;;;20.82;56.41;101110.19;4996004;28;6827;-75
2022/06/11 03:41:05;;;;;;;;;;;;;;;20.85;56.37;101106.78;5001341;28;6836;-75
2022/06/11 03:43:31;;;;;;;;;;;;;;;20.89;56.58;101113.78;4982577;28;6900;-75
2022/06/11 03:45:58;;;;;;;;;;;;;;;20.91;56.51;101112.97;5000977;28;6831;-75
2022/06/11 03:48:28;;;;;;;;;;;;;;;20.93;56.29;101111.25;5006230;28;7112;-75
2022/06/11 03:50:58;;;;;;;;;;;;;;;20.94;56.44;101120.81;4999184;28;6820;-75
2022/06/11 03:53:25;;;;;;;;;;;;;;;20.98;56.46;101119.16;4981317;28;6828;-75
2022/06/11 03:55:51;;;;;;;;;;;;;;;21.04;56.28;101127.06;4994445;28;6815;-75
2022/06/11 03:58:18;;;;;;;;;;;;;;;21.10;56.28;101128.91;4987473;28;6808;-75
2022/06/11 04:03:30;;;;;;;;;;;;;;;21.21;56.27;101129.94;4991221;28;6979;-75
2022/06/11 04:05:57;;;;;;;;;;;;;;;21.28;56.44;101127.44;5000876;28;6939;-75
2022/06/11 04:08:25;;;;;;;;;;;;;;;21.34;56.14;101132.72;5004994;28;7020;-75
2022/06/11 04:10:56;;;;;;;;;;;;;;;21.40;56.25;101138.03;5005957;28;6881;-75
2022/06/11 04:13:25;;;;;;;;;;;;;;;21.46;56.06;101134.66;5001462;28;7193;-75
2022/06/11 04:15:52;;;;;;;;;;;;;;;21.52;55.97;101129.53;4981233;28;6971;-75
2022/06/11 04:18:43;;;;;;;;;;;;;;;21.60;56.27;101129.63;4981514;28;7779;-75
2022/06/11 04:21:12;;;;;;;;;;;;;;;21.71;56.20;101137.66;5001841;28;7284;-75
2022/06/11 04:23:42;;;;;;;;;;;;;;;21.80;56.13;101132.56;5003867;28;6824;-75
2022/06/11 04:26:13;;;;;;;;;;;;;;;21.98;56.40;101134.50;4982617;28;6900;-75
2022/06/11 04:28:40;;;;;;;;;;;;;;;22.14;56.27;101139.94;4993287;28;6820;-76
2022/06/11 04:31:09;;;;;;;;;;;;;;;22.26;55.61;101142.69;5001374;28;6967;-75
2022/06/11 04:33:36;;;;;;;;;;;;;;;22.40;55.91;101135.00;4997517;28;6888;-75
2022/06/11 04:36:04;;;;;;;;;;;;;;;22.54;55.61;101134.28;5005571;28;6804;-75
2022/06/11 04:38:30;;;;;;;;;;;;;;;22.63;54.88;101141.34;5004137;28;6886;-75
2022/06/11 04:40:55;;;;;;;;;;;;;;;22.69;55.02;101141.38;5004042;28;6875;-75
2022/06/11 04:43:21;;;;;;;;;;;;;;;22.72;54.55;101146.66;4997867;28;6879;-75
2022/06/11 04:45:47;;;;;;;;;;;;;;;22.75;54.61;101146.69;4986840;28;6784;-75
2022/06/11 04:48:13;;;;;;;;;;;;;;;22.79;54.35;101147.59;4995768;28;6960;-75
2022/06/11 04:50:39;;;;;;;;;;;;;;;22.82;54.47;101148.50;5016093;28;6815;-75
2022/06/11 04:53:05;;;;;;;;;;;;;;;22.87;54.30;101146.78;5004453;28;6811;-76
2022/06/11 04:55:32;;;;;;;;;;;;;;;22.91;54.19;101146.84;4985120;28;7289;-75
2022/06/11 04:57:58;;;;;;;;;;;;;;;22.95;53.74;101148.59;4985178;28;6970;-75
2022/06/11 05:00:29;;;;;;;;;;;;;;;22.98;53.95;101146.00;4996163;28;6815;-75
2022/06/11 05:02:55;;;;;;;;;;;;;;;23.01;54.04;101144.28;4995230;28;7356;-75
2022/06/11 05:05:21;;;;;;;;;;;;;;;23.05;53.84;101139.13;4999831;28;6819;-75
2022/06/11 05:07:49;;;;;;;;;;;;;;;23.09;53.61;101149.59;4985970;28;7126;-75
2022/06/11 05:10:19;;;;;;;;;;;;;;;23.13;53.62;101153.97;5005089;28;6987;-75
2022/06/11 05:12:45;;;;;;;;;;;;;;;23.21;53.35;101156.66;4984563;28;6816;-75
2022/06/11 05:15:11;;;;;;;;;;;;;;;23.28;53.46;101152.41;5002924;28;6879;-75
2022/06/11 05:17:37;;;;;;;;;;;;;;;23.33;53.23;101153.28;4999952;28;7915;-75
2022/06/11 05:20:06;;;;;;;;;;;;;;;23.39;53.11;101155.06;4987774;28;7847;-75
2022/06/11 05:22:32;;;;;;;;;;;;;;;23.43;53.28;101151.63;4986616;28;6900;-75
2022/06/11 05:24:57;;;;;;;;;;;;;;;23.48;53.28;101154.28;5002934;28;6811;-75
2022/06/11 05:27:25;;;;;;;;;;;;;;;23.52;53.32;101150.78;5005936;28;7636;-75
2022/06/11 05:30:00;;;;;;;;;;;;;;;23.59;53.13;101152.59;5003661;28;7169;-75
2022/06/11 05:32:33;;;;;;;;;;;;;;;23.65;53.14;101150.00;5004589;28;6844;-75
2022/06/11 05:35:03;;;;;;;;;;;;;;;23.73;52.87;101157.91;4990498;28;7055;-75
2022/06/11 05:37:29;;;;;;;;;;;;;;;23.82;52.89;101159.69;4976272;28;7272;-75
2022/06/11 05:39:55;;;;;;;;;;;;;;;23.90;52.61;101157.97;5001616;28;6795;-75
2022/06/11 05:42:24;;;;;;;;;;;;;;;23.98;53.20;101153.66;4981922;28;7204;-75
2022/06/11 05:44:50;;;;;;;;;;;;;;;24.08;52.75;101157.19;4986539;28;7338;-75
2022/06/11 05:47:22;;;;;;;;;;;;;;;24.20;52.86;101155.53;5001821;28;7125;-75
2022/06/11 05:49:55;;;;;;;;;;;;;;;24.29;52.78;101154.66;5004536;28;7142;-75
2022/06/11 05:52:31;;;;;;;;;;;;;;;24.39;52.25;101154.72;5004793;28;6819;-75
2022/06/11 05:54:57;;;;;;;;;;;;;;;24.50;52.26;101153.84;4986365;28;7286;-75
2022/06/11 05:57:27;;;;;;;;;;;;;;;24.61;51.74;101157.34;5002500;28;7173;-75
2022/06/11 06:00:07;;;;;;;;;;;;;;;24.71;52.30;101160.84;4993180;28;7026;-75
2022/06/11 06:02:33;;;;;;;;;;;;;;;24.81;51.42;101164.41;5005791;28;7503;-74
2022/06/11 06:04:59;;;;;;;;;;;;;;;24.88;51.20;101162.66;4976391;28;7071;-74
2022/06/11 06:07:24;;;;;;;;;;;;;;;24.93;51.34;101160.94;4984594;28;6983;-74
2022/06/11 06:09:50;;;;;;;;;;;;;;;25.01;51.41;101164.41;4999546;28;7279;-74
2022/06/11 06:12:17;;;;;;;;;;;;;;;25.09;51.19;101164.41;4983632;28;6872;-74
2022/06/11 06:14:44;;;;;;;;;;;;;;;25.17;50.84;101167.03;4980534;28;8727;-74
2022/06/11 06:17:10;;;;;;;;;;;;;;;25.21;51.17;101174.03;4979818;28;6800;-74
2022/06/11 06:19:36;;;;;;;;;;;;;;;25.29;50.88;101172.25;5001168;28;6862;-74
2022/06/11 06:22:04;;;;;;;;;;;;;;;25.35;50.61;101172.25;5006939;28;6945;-75
2022/06/11 06:24:33;;;;;;;;;;;;;;;25.44;50.47;101175.75;5000184;28;7337;-76
2022/06/11 06:26:58;;;;;;;;;;;;;;;25.51;50.36;101169.66;4985560;28;6824;-75
2022/06/11 06:29:24;;;;;;;;;;;;;;;25.58;50.50;101173.13;5021089;28;7847;-76
2022/06/11 06:31:50;;;;;;;;;;;;;;;25.67;50.24;101180.09;5003264;28;6871;-74
2022/06/11 06:34:16;;;;;;;;;;;;;;;25.74;50.01;101179.22;5004776;28;7006;-74
2022/06/11 06:36:41;;;;;;;;;;;;;;;25.81;49.56;101174.81;5005137;28;6788;-74
2022/06/11 06:39:08;;;;;;;;;;;;;;;25.87;49.21;101177.44;5002972;28;6927;-75
2022/06/11 06:41:33;;;;;;;;;;;;;;;25.91;49.68;101177.41;5006534;28;6808;-75
2022/06/11 06:43:59;;;;;;;;;;;;;;;25.98;49.02;101180.00;5003615;28;6792;-75
2022/06/11 06:46:25;;;;;;;;;;;;;;;26.01;48.56;101177.38;5009269;28;6796;-75
2022/06/11 06:48:50;;;;;;;;;;;;;;;26.05;48.70;101173.84;4987777;28;6792;-75
2022/06/11 06:51:18;;;;;;;;;;;;;;;26.08;48.65;101179.09;5000271;28;6803;-75
2022/06/11 06:53:45;;;;;;;;;;;;;;;26.14;48.41;101184.31;5007998;28;7019;-75
2022/06/11 06:56:11;;;;;;;;;;;;;;;26.19;48.53;101187.84;5018183;28;7794;-75
2022/06/11 06:58:37;;;;;;;;;;;;;;;26.26;48.12;101178.16;5008267;28;7003;-75
2022/06/11 07:01:03;;;;;;;;;;;;;;;26.34;47.94;101176.38;4987723;28;6963;-75
2022/06/11 07:03:29;;;;;;;;;;;;;;;26.38;47.74;101181.59;5004336;28;6892;-75
2022/06/11 07:05:55;;;;;;;;;;;;;;;26.32;47.43;101179.88;5004905;28;7189;-75
2022/06/11 07:08:21;;;;;;;;;;;;;;;26.25;47.74;101186.94;5002919;28;6787;-75
2022/06/11 07:10:52;;;;;;;;;;;;;;;26.39;48.94;101188.59;5003315;28;8247;-75
2022/06/11 07:13:19;;;;;;;;;;;;;;;26.73;48.90;101183.16;5002965;28;6808;-75
2022/06/11 07:15:51;;;;;;;;;;;;;;;27.15;48.08;101186.34;5006492;28;6796;-75
2022/06/11 07:18:28;;;;;;;;;;;;;;;27.61;47.18;101183.31;5006343;28;6900;-75
2022/06/11 07:20:58;;;;;;;;;;;;;;;28.03;46.18;101181.06;5001395;28;7244;-75
2022/06/11 07:23:42;;;;;;;;;;;;;;;28.48;45.84;101177.88;5003307;28;6896;-75
2022/06/11 07:26:16;;;;;;;;;;;;;;;29.00;44.83;101177.97;4998003;28;6819;-75
2022/06/11 07:29:29;;;;;;;;;;;;;;;29.43;42.70;101178.97;5003700;28;8011;-74
2022/06/11 07:32:06;;;;;;;;;;;;;;;29.52;41.19;101178.81;4994724;28;7194;-75
2022/06/11 07:34:34;;;;;;;;;;;;;;;29.42;40.36;101187.78;4984719;28;7328;-75
2022/06/11 07:37:00;;;;;;;;;;;;;;;29.34;40.95;101185.28;5000934;28;6812;-75
2022/06/11 07:39:26;;;;;;;;;;;;;;;29.32;41.59;101189.75;4967749;28;6931;-76
2022/06/11 07:41:52;;;;;;;;;;;;;;;29.35;41.10;101186.16;4989642;28;6799;-76
2022/06/11 07:44:17;;;;;;;;;;;;;;;29.35;40.96;101196.72;5018417;28;8731;-75
2022/06/11 07:46:43;;;;;;;;;;;;;;;29.28;40.96;101195.94;5006511;28;8064;-76
2022/06/11 07:49:09;;;;;;;;;;;;;;;29.28;41.24;101197.75;5006612;28;7196;-75
2022/06/11 07:51:34;;;;;;;;;;;;;;;29.30;41.25;101202.06;4986500;28;6887;-76
2022/06/11 07:54:01;;;;;;;;;;;;;;;29.30;41.53;101194.16;5007276;28;8151;-75
2022/06/11 07:56:26;;;;;;;;;;;;;;;29.38;40.68;101191.41;4997775;28;6819;-76
2022/06/11 07:58:55;;;;;;;;;;;;;;;29.47;40.83;101199.19;5017460;28;6787;-74
2022/06/11 08:01:21;;;;;;;;;;;;;;;29.49;40.09;101199.13;5021031;28;6986;-75
2022/06/11 08:03:46;;;;;;;;;;;;;;;29.43;40.65;101189.53;4999882;28;6799;-75
2022/06/11 08:06:12;;;;;;;;;;;;;;;29.37;40.19;101205.50;4986136;28;6787;-75
2022/06/11 08:08:39;;;;;;;;;;;;;;;29.35;40.71;101200.22;4986854;28;6942;-76
2022/06/11 08:11:06;;;;;;;;;;;;;;;29.36;40.40;101203.75;4998401;28;6915;-75
2022/06/11 08:13:33;;;;;;;;;;;;;;;29.44;39.99;101200.97;4997802;28;7158;-75
2022/06/11 08:16:01;;;;;;;;;;;;;;;29.74;40.44;101204.81;5002658;28;8059;-76
2022/06/11 08:18:29;;;;;;;;;;;;;;;30.41;40.34;101197.28;4989288;28;8352;-76
2022/06/11 08:20:55;;;;;;;;;;;;;;;31.22;39.44;101203.34;5004378;28;6812;-76
2022/06/11 08:23:23;;;;;;;;;;;;;;;31.97;38.29;101192.50;5004027;28;7057;-76
2022/06/11 08:25:50;;;;;;;;;;;;;;;32.55;37.19;101183.72;5004263;28;7160;-76
2022/06/11 08:28:17;;;;;;;;;;;;;;;33.02;36.48;101187.50;4989369;28;7010;-75
2022/06/11 08:30:45;;;;;;;;;;;;;;;33.51;35.56;101184.06;5003077;28;6800;-76
2022/06/11 08:33:12;;;;;;;;;;;;;;;33.88;34.41;101182.69;5004978;28;6827;-75
2022/06/11 08:35:38;;;;;;;;;;;;;;;34.05;34.79;101183.88;4994616;28;7831;-75
2022/06/11 08:38:05;;;;;;;;;;;;;;;34.09;34.48;101187.28;4985398;28;6997;-76
2022/06/11 08:40:49;;;;;;;;;;;;;;;34.18;34.36;101177.16;5002678;28;9381;-76
2022/06/11 08:43:40;;;;;;;;;;;;;;;34.60;34.36;101177.31;5001236;28;7475;-75
2022/06/11 08:46:15;;;;;;;;;;;;;;;35.12;33.26;101182.28;5002541;28;6827;-74
2022/06/11 08:48:59;;;;;;;;;;;;;;;35.07;32.15;101183.41;4990001;28;6887;-75
2022/06/11 08:51:48;;;;;;;;;;;;;;;34.89;32.15;101185.88;4988345;28;7000;-75
2022/06/11 08:54:22;;;;;;;;;;;;;;;35.00;32.34;101180.97;4986306;28;7111;-75
2022/06/11 08:57:06;;;;;;;;;;;;;;;35.40;32.29;101175.72;5004164;28;6807;-75
2022/06/11 08:59:53;;;;;;;;;;;;;;;35.85;31.05;101180.84;4985223;28;6903;-75
2022/06/11 09:02:46;;;;;;;;;;;;;;;35.79;30.38;101181.13;5007041;28;6796;-75
2022/06/11 09:05:31;;;;;;;;;;;;;;;35.13;30.30;101189.31;4977242;28;7099;-75
2022/06/11 09:08:34;;;;;;;;;;;;;;;34.41;31.27;101190.47;5006704;28;6819;-75
2022/06/11 09:11:22;;;;;;;;;;;;;;;33.61;31.64;101190.78;5003408;28;7213;-75
2022/06/11 09:14:16;;;;;;;;;;;;;;;32.90;32.44;101195.84;4989968;28;7102;-75
2022/06/11 09:17:14;;;;;;;;;;;;;;;32.31;33.65;101195.94;4996991;28;7375;-75
2022/06/11 09:20:17;;;;;;;;;;;;;;;32.13;34.12;101184.06;5003148;28;8008;-75
2022/06/11 09:22:51;;;;;;;;;;;;;;;32.47;34.35;101191.03;5004574;28;7284;-75
2022/06/11 09:26:12;;;;;;;;;;;;;;;32.97;34.10;101192.09;4983860;28;6990;-76
2022/06/11 09:28:54;;;;;;;;;;;;;;;33.36;33.82;101186.31;4968753;28;7384;-75
2022/06/11 09:31:40;;;;;;;;;;;;;;;33.51;32.95;101187.59;5003292;28;7577;-76
2022/06/11 09:34:14;;;;;;;;;;;;;;;33.37;32.66;101187.22;5004470;28;6799;-76
2022/06/11 09:37:04;;;;;;;;;;;;;;;33.17;33.03;101193.22;4993180;28;7120;-76
2022/06/11 09:40:02;;;;;;;;;;;;;;;33.25;32.81;101192.00;5012832;28;6904;-76
2022/06/11 09:43:23;;;;;;;;;;;;;;;33.34;32.44;101201.47;4995362;28;6959;-76
2022/06/11 09:46:36;;;;;;;;;;;;;;;33.33;32.35;101193.53;5005020;28;7194;-76
2022/06/11 09:49:32;;;;;;;;;;;;;;;33.10;32.41;101198.72;5002567;28;6811;-75
2022/06/11 09:52:32;;;;;;;;;;;;;;;32.85;33.07;101195.16;5002534;28;6895;-75
2022/06/11 09:55:33;;;;;;;;;;;;;;;33.18;33.62;101197.59;4986496;28;6836;-76
2022/06/11 09:58:56;;;;;;;;;;;;;;;34.06;33.12;101196.25;5002581;28;7037;-76
2022/06/11 10:01:32;;;;;;;;;;;;;;;34.74;31.46;101193.56;4963790;28;7051;-76
2022/06/11 10:04:09;;;;;;;;;;;;;;;34.87;31.35;101188.59;5003975;28;6812;-76
2022/06/11 10:06:47;;;;;;;;;;;;;;;35.19;31.28;101198.84;4998939;28;6807;-76
2022/06/11 10:09:44;;;;;;;;;;;;;;;35.64;30.64;101198.69;5004029;28;7060;-76
2022/06/11 10:12:33;;;;;;;;;;;;;;;35.58;29.81;101206.03;4997478;28;7012;-76
2022/06/11 10:15:12;;;;;;;;;;;;;;;35.02;30.34;101205.72;5003162;28;7211;-76
2022/06/11 10:17:56;;;;;;;;;;;;;;;34.72;31.11;101200.75;4998807;28;6979;-76
2022/06/11 10:20:42;;;;;;;;;;;;;;;34.68;30.47;101204.50;4999959;28;7884;-75
2022/06/11 10:23:45;;;;;;;;;;;;;;;34.56;30.41;101199.66;4987576;28;6812;-76
2022/06/11 10:26:25;;;;;;;;;;;;;;;34.63;30.93;101198.47;5004205;28;6969;-76
2022/06/11 10:29:30;;;;;;;;;;;;;;;34.96;30.84;101203.34;5004980;28;7360;-76
2022/06/11 10:32:05;;;;;;;;;;;;;;;35.36;30.55;101206.09;5015182;28;6820;-77
2022/06/11 10:34:31;;;;;;;;;;;;;;;35.39;29.19;101199.75;5005822;28;7076;-76
2022/06/11 10:37:24;;;;;;;;;;;;;;;35.38;29.77;101203.38;5003140;28;6796;-75
2022/06/11 10:40:17;;;;;;;;;;;;;;;35.40;29.77;101202.38;4985111;28;6898;-75
2022/06/11 10:43:09;;;;;;;;;;;;;;;35.64;30.16;101185.34;5002395;28;6823;-76
2022/06/11 10:45:35;;;;;;;;;;;;;;;35.84;29.50;101195.09;5000076;28;8346;-76
2022/06/11 10:48:05;;;;;;;;;;;;;;;36.04;30.00;101195.97;5003057;28;6899;-76
2022/06/11 10:50:36;;;;;;;;;;;;;;;36.53;29.25;101192.78;4997896;28;7389;-74
2022/06/11 10:53:12;;;;;;;;;;;;;;;36.89;27.83;101185.69;5002210;28;6800;-75
2022/06/11 10:55:53;;;;;;;;;;;;;;;36.98;28.14;101182.56;5003733;28;7019;-75
2022/06/11 10:58:45;;;;;;;;;;;;;;;37.20;27.58;101184.13;5000590;28;6967;-75
2022/06/11 11:01:21;;;;;;;;;;;;;;;37.09;26.89;101185.56;5000089;28;6883;-75
2022/06/11 11:03:55;;;;;;;;;;;;;;;36.88;26.87;101186.63;4994018;28;6807;-75
2022/06/11 11:06:33;;;;;;;;;;;;;;;36.93;27.38;101174.78;5002780;28;7233;-76
2022/06/11 11:09:06;;;;;;;;;;;;;;;37.00;27.17;101180.66;5005054;28;6823;-75
2022/06/11 11:11:49;;;;;;;;;;;;;;;37.15;26.85;101183.53;5001700;28;6820;-76
2022/06/11 11:14:32;;;;;;;;;;;;;;;37.02;26.79;101183.25;4987368;28;7000;-75
2022/06/11 11:17:05;;;;;;;;;;;;;;;36.76;26.72;101182.78;4999228;28;6903;-75
2022/06/11 11:19:45;;;;;;;;;;;;;;;36.65;26.99;101181.50;5005582;28;6957;-75
2022/06/11 11:22:20;;;;;;;;;;;;;;;36.61;26.77;101184.41;5004362;28;8422;-75
2022/06/11 11:24:52;;;;;;;;;;;;;;;36.86;27.00;101176.03;5005162;28;6800;-75
2022/06/11 11:27:44;;;;;;;;;;;;;;;37.36;26.58;101173.47;5004895;28;6958;-76
2022/06/11 11:30:15;;;;;;;;;;;;;;;37.81;26.30;101172.91;5003266;28;7105;-75
2022/06/11 11:32:45;;;;;;;;;;;;;;;37.98;25.65;101166.63;5002856;28;6784;-75
2022/06/11 11:35:28;;;;;;;;;;;;;;;38.22;25.88;101169.75;5000926;28;7008;-75
2022/06/11 11:38:21;;;;;;;;;;;;;;;38.58;25.41;101160.56;5018690;28;8103;-75
2022/06/11 11:40:55;;;;;;;;;;;;;;;38.86;25.17;101158.91;4989976;28;6883;-75
2022/06/11 11:43:24;;;;;;;;;;;;;;;39.10;25.33;101169.09;5009241;28;6895;-75
2022/06/11 11:46:01;;;;;;;;;;;;;;;39.43;24.79;101165.34;5000921;28;7284;-75
2022/06/11 11:48:55;;;;;;;;;;;;;;;39.70;24.34;101167.25;4989730;28;7237;-75
2022/06/11 11:51:40;;;;;;;;;;;;;;;39.53;24.31;101159.41;5007466;28;8007;-76
2022/06/11 11:54:17;;;;;;;;;;;;;;;39.58;24.31;101163.50;5000391;28;7309;-75
2022/06/11 11:56:53;;;;;;;;;;;;;;;39.69;24.28;101157.44;5022253;28;7014;-75
2022/06/11 11:59:49;;;;;;;;;;;;;;;39.30;23.87;101156.28;5003339;28;6839;-75
2022/06/11 12:02:21;;;;;;;;;;;;;;;38.92;24.28;101163.03;5003096;28;7710;-75
2022/06/11 12:05:19;;;;;;;;;;;;;;;38.88;24.37;101154.31;4978494;28;7261;-76
2022/06/11 12:07:48;;;;;;;;;;;;;;;38.88;24.49;101153.47;4990458;28;6995;-75
2022/06/11 12:10:38;;;;;;;;;;;;;;;38.88;24.18;101162.34;4993868;28;8070;-76
2022/06/11 12:13:30;;;;;;;;;;;;;;;38.75;24.10;101156.03;4986953;28;6974;-77
2022/06/11 12:16:05;;;;;;;;;;;;;;;38.52;24.57;101154.72;4981770;28;6896;-76
2022/06/11 12:18:45;;;;;;;;;;;;;;;38.64;24.76;101145.94;4994922;28;6819;-76
2022/06/11 12:21:23;;;;;;;;;;;;;;;39.00;24.77;101149.19;5001984;28;6816;-76
2022/06/11 12:24:09;;;;;;;;;;;;;;;39.14;24.30;101145.66;4988098;28;7064;-76
2022/06/11 12:26:52;;;;;;;;;;;;;;;39.12;24.25;101148.47;5005398;28;6811;-76
2022/06/11 12:29:53;;;;;;;;;;;;;;;39.08;24.22;101152.28;4984750;28;8412;-76
2022/06/11 12:32:23;;;;;;;;;;;;;;;38.55;24.27;101149.16;5003190;28;6808;-76
2022/06/11 12:34:52;;;;;;;;;;;;;;;38.37;24.44;101145.72;4995602;28;6848;-76
2022/06/11 12:37:53;;;;;;;;;;;;;;;38.31;24.89;101138.94;5004605;28;7181;-76
2022/06/11 12:40:52;;;;;;;;;;;;;;;38.38;24.56;101137.59;5003452;28;6836;-76
2022/06/11 12:43:51;;;;;;;;;;;;;;;38.56;24.54;101135.69;4986998;28;6825;-76
2022/06/11 12:46:46;;;;;;;;;;;;;;;38.77;24.98;101138.03;4998791;28;6824;-76
2022/06/11 12:49:38;;;;;;;;;;;;;;;39.20;24.41;101137.25;4995835;28;7039;-76
2022/06/11 12:52:34;;;;;;;;;;;;;;;39.52;23.77;101145.13;5000150;28;7438;-75
2022/06/11 12:55:21;;;;;;;;;;;;;;;39.75;23.53;101134.75;5002312;28;7012;-76
2022/06/11 12:58:03;;;;;;;;;;;;;;;39.87;23.36;101141.16;4988891;28;7180;-76
2022/06/11 13:00:47;;;;;;;;;;;;;;;39.82;23.15;101143.25;5000351;28;6815;-76
2022/06/11 13:03:46;;;;;;;;;;;;;;;39.60;22.95;101139.28;5003779;28;8228;-76
2022/06/11 13:06:35;;;;;;;;;;;;;;;38.97;23.22;101134.19;5005257;28;8390;-76
2022/06/11 13:09:35;;;;;;;;;;;;;;;38.54;23.95;101136.72;4997904;28;8100;-76
2022/06/11 13:12:27;;;;;;;;;;;;;;;38.46;24.12;101123.78;4996101;28;6824;-75
2022/06/11 13:15:17;;;;;;;;;;;;;;;38.45;24.34;101138.13;5017714;28;7091;-75
2022/06/11 13:18:11;;;;;;;;;;;;;;;38.42;24.43;101132.94;5003771;28;7211;-76
2022/06/11 13:20:59;;;;;;;;;;;;;;;38.39;24.16;101138.47;5003227;28;6990;-75
2022/06/11 13:23:33;;;;;;;;;;;;;;;38.32;24.32;101143.31;4998454;28;8793;-75
2022/06/11 13:26:35;;;;;;;;;;;;;;;38.28;23.96;101126.56;4980476;28;7199;-75
2022/06/11 13:29:25;;;;;;;;;;;;;;;38.17;24.50;101137.06;5003212;28;7122;-75
2022/06/11 13:32:25;;;;;;;;;;;;;;;38.02;24.42;101128.09;5016982;28;6836;-76
2022/06/11 13:35:06;;;;;;;;;;;;;;;37.88;24.32;101136.88;5005893;28;7246;-75
2022/06/11 13:37:51;;;;;;;;;;;;;;;37.74;24.38;101135.81;5004918;28;6827;-76
2022/06/11 13:40:43;;;;;;;;;;;;;;;37.69;24.26;101131.66;5003391;28;6962;-75